sensor_id;sensor_type;location;lat;lon;timestamp;pressure;altitude;pressure_sealevel;temperature;humidity
66273;BME280;58450;52.150;4.466;2022-09-09T00:01:50;100702.88;;;15.60;100.00
66273;BME280;58450;52.150;4.466;2022-09-09T00:04:26;100697.09;;;15.57;100.00
66273;BME280;58450;52.150;4.466;2022-09-09T00:07:03;100698.50;;;15.59;100.00
66273;BME280;58450;52.150;4.466;2022-09-09T00:09:38;100699.81;;;15.57;100.00
66273;BME280;58450;52.150;4.466;2022-09-09T00:12:15;100699.97;;;15.62;100.00
66273;BME280;58450;52.150;4.466;2022-09-09T00:14:51;100692.44;;;15.64;100.00
66273;BME280;58450;52.150;4.466;2022-09-09T00:17:32;100689.09;;;15.62;100.00
66273;BME280;58450;52.150;4.466;2022-09-09T00:20:12;100688.28;;;15.61;100.00
66273;BME280;58450;52.150;4.466;2022-09-09T00:22:47;100684.75;;;15.61;100.00
66273;BME280;58450;52.150;4.466;2022-09-09T00:25:27;100689.78;;;15.57;100.00
66273;BME280;58450;52.150;4.466;2022-09-09T00:28:00;100698.97;;;15.56;100.00
66273;BME280;58450;52.150;4.466;2022-09-09T00:30:32;100692.47;;;15.57;100.00
66273;BME280;58450;52.150;4.466;2022-09-09T00:33:11;100687.50;;;15.54;100.00
66273;BME280;58450;52.150;4.466;2022-09-09T00:35:44;100688.56;;;15.53;100.00
66273;BME280;58450;52.150;4.466;2022-09-09T00:38:17;100686.44;;;15.55;100.00
66273;BME280;58450;52.150;4.466;2022-09-09T00:40:52;100683.38;;;15.51;100.00
66273;BME280;58450;52.150;4.466;2022-09-09T00:43:28;100686.28;;;15.50;100.00
66273;BME280;58450;52.150;4.466;2022-09-09T00:46:20;100685.31;;;15.44;100.00
66273;BME280;58450;52.150;4.466;2022-09-09T00:49:17;100676.56;;;15.42;100.00
66273;BME280;58450;52.150;4.466;2022-09-09T00:51:59;100679.09;;;15.44;100.00
66273;BME280;58450;52.150;4.466;2022-09-09T00:54:45;100680.34;;;15.41;100.00
66273;BME280;58450;52.150;4.466;2022-09-09T00:57:26;100681.78;;;15.44;100.00
66273;BME280;58450;52.150;4.466;2022-09-09T01:00:17;100671.16;;;15.42;100.00
66273;BME280;58450;52.150;4.466;2022-09-09T01:02:53;100673.25;;;15.40;100.00
66273;BME280;58450;52.150;4.466;2022-09-09T01:05:39;100680.56;;;15.40;100.00
66273;BME280;58450;52.150;4.466;2022-09-09T01:08:22;100679.53;;;15.41;100.00
66273;BME280;58450;52.150;4.466;2022-09-09T01:11:00;100673.06;;;15.42;100.00
66273;BME280;58450;52.150;4.466;2022-09-09T01:13:30;100680.78;;;15.38;100.00
66273;BME280;58450;52.150;4.466;2022-09-09T01:16:02;100670.03;;;15.31;100.00
66273;BME280;58450;52.150;4.466;2022-09-09T01:18:36;100670.22;;;15.30;100.00
66273;BME280;58450;52.150;4.466;2022-09-09T01:21:19;100665.25;;;15.27;100.00
66273;BME280;58450;52.150;4.466;2022-09-09T01:24:08;100660.50;;;15.22;100.00
66273;BME280;58450;52.150;4.466;2022-09-09T01:26:51;100658.84;;;15.21;100.00
66273;BME280;58450;52.150;4.466;2022-09-09T01:29:24;100665.31;;;15.20;100.00
66273;BME280;58450;52.150;4.466;2022-09-09T01:31:54;100659.91;;;15.20;100.00
66273;BME280;58450;52.150;4.466;2022-09-09T01:34:25;100661.75;;;15.19;100.00
66273;BME280;58450;52.150;4.466;2022-09-09T01:36:59;100655.97;;;15.16;100.00
66273;BME280;58450;52.150;4.466;2022-09-09T01:39:32;100651.00;;;15.13;100.00
66273;BME280;58450;52.150;4.466;2022-09-09T01:42:05;100642.03;;;15.12;100.00
66273;BME280;58450;52.150;4.466;2022-09-09T01:44:35;100642.25;;;15.11;100.00
66273;BME280;58450;52.150;4.466;2022-09-09T01:47:05;100640.59;;;15.10;100.00
66273;BME280;58450;52.150;4.466;2022-09-09T01:49:33;100634.78;;;15.06;100.00
66273;BME280;58450;52.150;4.466;2022-09-09T01:52:01;100648.75;;;15.03;100.00
66273;BME280;58450;52.150;4.466;2022-09-09T01:54:31;100639.22;;;15.00;100.00
66273;BME280;58450;52.150;4.466;2022-09-09T01:57:08;100630.28;;;15.00;100.00
66273;BME280;58450;52.150;4.466;2022-09-09T01:59:52;100627.16;;;14.96;100.00
66273;BME280;58450;52.150;4.466;2022-09-09T02:02:32;100630.09;;;14.95;100.00
66273;BME280;58450;52.150;4.466;2022-09-09T02:05:16;100625.34;;;14.90;100.00
66273;BME280;58450;52.150;4.466;2022-09-09T02:07:51;100631.81;;;14.89;100.00
66273;BME280;58450;52.150;4.466;2022-09-09T02:10:31;100626.81;;;14.86;100.00
66273;BME280;58450;52.150;4.466;2022-09-09T02:13:09;100631.00;;;14.88;100.00
66273;BME280;58450;52.150;4.466;2022-09-09T02:15:43;100627.88;;;14.85;100.00
66273;BME280;58450;52.150;4.466;2022-09-09T02:18:21;100631.25;;;14.80;100.00
66273;BME280;58450;52.150;4.466;2022-09-09T02:20:54;100624.00;;;14.74;100.00
66273;BME280;58450;52.150;4.466;2022-09-09T02:23:26;100628.38;;;14.68;100.00
66273;BME280;58450;52.150;4.466;2022-09-09T02:25:57;100631.53;;;14.65;100.00
66273;BME280;58450;52.150;4.466;2022-09-09T02:28:28;100618.22;;;14.63;100.00
66273;BME280;58450;52.150;4.466;2022-09-09T02:30:59;100605.13;;;14.60;100.00
66273;BME280;58450;52.150;4.466;2022-09-09T02:33:30;100606.78;;;14.61;100.00
66273;BME280;58450;52.150;4.466;2022-09-09T02:36:03;100602.41;;;14.60;100.00
66273;BME280;58450;52.150;4.466;2022-09-09T02:38:37;100604.28;;;14.60;100.00
66273;BME280;58450;52.150;4.466;2022-09-09T02:41:10;100608.50;;;14.56;100.00
66273;BME280;58450;52.150;4.466;2022-09-09T02:43:38;100605.19;;;14.54;100.00
66273;BME280;58450;52.150;4.466;2022-09-09T02:46:13;100603.72;;;14.51;100.00
66273;BME280;58450;52.150;4.466;2022-09-09T02:48:58;100599.81;;;14.47;100.00
66273;BME280;58450;52.150;4.466;2022-09-09T02:51:35;100588.97;;;14.47;100.00
66273;BME280;58450;52.150;4.466;2022-09-09T02:54:17;100600.84;;;14.46;100.00
66273;BME280;58450;52.150;4.466;2022-09-09T02:56:53;100600.03;;;14.45;100.00
66273;BME280;58450;52.150;4.466;2022-09-09T02:59:24;100594.38;;;14.47;100.00
66273;BME280;58450;52.150;4.466;2022-09-09T03:01:53;100601.47;;;14.48;100.00
66273;BME280;58450;52.150;4.466;2022-09-09T03:04:20;100610.44;;;14.48;100.00
66273;BME280;58450;52.150;4.466;2022-09-09T03:06:48;100598.75;;;14.48;100.00
66273;BME280;58450;52.150;4.466;2022-09-09T03:09:15;100605.00;;;14.48;100.00
66273;BME280;58450;52.150;4.466;2022-09-09T03:11:43;100603.34;;;14.47;100.00
66273;BME280;58450;52.150;4.466;2022-09-09T03:14:10;100601.25;;;14.50;100.00
66273;BME280;58450;52.150;4.466;2022-09-09T03:16:39;100594.19;;;14.48;100.00
66273;BME280;58450;52.150;4.466;2022-09-09T03:19:08;100588.34;;;14.45;100.00
66273;BME280;58450;52.150;4.466;2022-09-09T03:21:36;100591.28;;;14.43;100.00
66273;BME280;58450;52.150;4.466;2022-09-09T03:24:03;100591.91;;;14.45;100.00
66273;BME280;58450;52.150;4.466;2022-09-09T03:26:32;100587.75;;;14.43;100.00
66273;BME280;58450;52.150;4.466;2022-09-09T03:29:00;100599.41;;;14.43;100.00
66273;BME280;58450;52.150;4.466;2022-09-09T03:31:27;100591.91;;;14.45;100.00
66273;BME280;58450;52.150;4.466;2022-09-09T03:33:57;100585.44;;;14.46;100.00
66273;BME280;58450;52.150;4.466;2022-09-09T03:36:25;100575.22;;;14.48;100.00
66273;BME280;58450;52.150;4.466;2022-09-09T03:38:54;100576.88;;;14.50;100.00
66273;BME280;58450;52.150;4.466;2022-09-09T03:41:22;100579.59;;;14.50;100.00
66273;BME280;58450;52.150;4.466;2022-09-09T03:43:50;100574.19;;;14.50;100.00
66273;BME280;58450;52.150;4.466;2022-09-09T03:46:18;100577.75;;;14.43;100.00
66273;BME280;58450;52.150;4.466;2022-09-09T03:48:46;100581.91;;;14.46;100.00
66273;BME280;58450;52.150;4.466;2022-09-09T03:51:15;100576.03;;;14.49;100.00
66273;BME280;58450;52.150;4.466;2022-09-09T03:53:43;100581.69;;;14.47;100.00
66273;BME280;58450;52.150;4.466;2022-09-09T03:56:11;100571.91;;;14.46;100.00
66273;BME280;58450;52.150;4.466;2022-09-09T03:58:38;100583.34;;;14.48;100.00
66273;BME280;58450;52.150;4.466;2022-09-09T04:01:09;100586.06;;;14.48;100.00
66273;BME280;58450;52.150;4.466;2022-09-09T04:03:39;100579.34;;;14.51;100.00
66273;BME280;58450;52.150;4.466;2022-09-09T04:06:09;100585.81;;;14.50;100.00
66273;BME280;58450;52.150;4.466;2022-09-09T04:08:40;100567.31;;;14.47;100.00
66273;BME280;58450;52.150;4.466;2022-09-09T04:11:08;100567.75;;;14.44;100.00
66273;BME280;58450;52.150;4.466;2022-09-09T04:13:37;100566.34;;;14.34;100.00
66273;BME280;58450;52.150;4.466;2022-09-09T04:16:07;100560.16;;;14.27;100.00
66273;BME280;58450;52.150;4.466;2022-09-09T04:18:37;100561.19;;;14.26;100.00
66273;BME280;58450;52.150;4.466;2022-09-09T04:21:05;100551.66;;;14.24;100.00
66273;BME280;58450;52.150;4.466;2022-09-09T04:23:33;100543.97;;;14.21;100.00
66273;BME280;58450;52.150;4.466;2022-09-09T04:26:03;100546.28;;;14.17;100.00
66273;BME280;58450;52.150;4.466;2022-09-09T04:28:33;100553.56;;;14.16;100.00
66273;BME280;58450;52.150;4.466;2022-09-09T04:31:05;100547.16;;;14.11;100.00
66273;BME280;58450;52.150;4.466;2022-09-09T04:33:35;100548.84;;;14.12;100.00
66273;BME280;58450;52.150;4.466;2022-09-09T04:36:03;100551.38;;;14.07;100.00
66273;BME280;58450;52.150;4.466;2022-09-09T04:38:30;100552.41;;;14.06;100.00
66273;BME280;58450;52.150;4.466;2022-09-09T04:40:58;100543.44;;;14.05;100.00
66273;BME280;58450;52.150;4.466;2022-09-09T04:43:27;100533.66;;;14.04;100.00
66273;BME280;58450;52.150;4.466;2022-09-09T04:45:54;100538.09;;;13.98;100.00
66273;BME280;58450;52.150;4.466;2022-09-09T04:48:22;100544.31;;;13.99;100.00
66273;BME280;58450;52.150;4.466;2022-09-09T04:50:56;100547.25;;;13.97;100.00
66273;BME280;58450;52.150;4.466;2022-09-09T04:53:25;100541.59;;;13.99;100.00
66273;BME280;58450;52.150;4.466;2022-09-09T04:56:01;100533.50;;;13.99;100.00
66273;BME280;58450;52.150;4.466;2022-09-09T04:58:31;100529.13;;;13.98;100.00
66273;BME280;58450;52.150;4.466;2022-09-09T05:01:06;100534.53;;;13.98;100.00
66273;BME280;58450;52.150;4.466;2022-09-09T05:03:34;100534.53;;;13.98;100.00
66273;BME280;58450;52.150;4.466;2022-09-09T05:06:04;100537.47;;;13.96;100.00
66273;BME280;58450;52.150;4.466;2022-09-09T05:08:34;100529.97;;;13.98;100.00
66273;BME280;58450;52.150;4.466;2022-09-09T05:11:03;100529.53;;;14.01;100.00
66273;BME280;58450;52.150;4.466;2022-09-09T05:13:32;100536.78;;;14.08;100.00
66273;BME280;58450;52.150;4.466;2022-09-09T05:16:00;100535.94;;;14.07;100.00
66273;BME280;58450;52.150;4.466;2022-09-09T05:18:27;100541.97;;;14.09;100.00
66273;BME280;58450;52.150;4.466;2022-09-09T05:20:58;100535.50;;;14.10;100.00
66273;BME280;58450;52.150;4.466;2022-09-09T05:23:26;100535.06;;;14.13;100.00
66273;BME280;58450;52.150;4.466;2022-09-09T05:25:55;100535.69;;;14.15;100.00
66273;BME280;58450;52.150;4.466;2022-09-09T05:28:24;100526.50;;;14.16;100.00
66273;BME280;58450;52.150;4.466;2022-09-09T05:30:58;100524.19;;;14.20;100.00
66273;BME280;58450;52.150;4.466;2022-09-09T05:33:27;100523.97;;;14.22;100.00
66273;BME280;58450;52.150;4.466;2022-09-09T05:35:58;100522.06;;;14.29;100.00
66273;BME280;58450;52.150;4.466;2022-09-09T05:38:27;100516.38;;;14.37;100.00
66273;BME280;58450;52.150;4.466;2022-09-09T05:40:55;100521.28;;;14.47;100.00
66273;BME280;58450;52.150;4.466;2022-09-09T05:43:23;100521.97;;;14.61;100.00
66273;BME280;58450;52.150;4.466;2022-09-09T05:46:01;100522.34;;;14.71;100.00
66273;BME280;58450;52.150;4.466;2022-09-09T05:48:32;100514.94;;;14.85;100.00
66273;BME280;58450;52.150;4.466;2022-09-09T05:51:01;100521.56;;;14.89;100.00
66273;BME280;58450;52.150;4.466;2022-09-09T05:53:30;100531.88;;;14.99;100.00
66273;BME280;58450;52.150;4.466;2022-09-09T05:56:01;100532.63;;;15.06;100.00
66273;BME280;58450;52.150;4.466;2022-09-09T05:58:30;100544.44;;;15.12;100.00
66273;BME280;58450;52.150;4.466;2022-09-09T06:01:04;100542.66;;;15.25;100.00
66273;BME280;58450;52.150;4.466;2022-09-09T06:03:33;100543.66;;;15.30;100.00
66273;BME280;58450;52.150;4.466;2022-09-09T06:06:02;100542.66;;;15.25;100.00
66273;BME280;58450;52.150;4.466;2022-09-09T06:08:32;100549.22;;;15.35;100.00
66273;BME280;58450;52.150;4.466;2022-09-09T06:11:02;100544.47;;;15.31;100.00
66273;BME280;58450;52.150;4.466;2022-09-09T06:13:30;100546.13;;;15.32;100.00
66273;BME280;58450;52.150;4.466;2022-09-09T06:15:59;100542.75;;;15.36;100.00
66273;BME280;58450;52.150;4.466;2022-09-09T06:18:28;100554.34;;;15.44;100.00
66273;BME280;58450;52.150;4.466;2022-09-09T06:20:56;100546.66;;;15.41;100.00
66273;BME280;58450;52.150;4.466;2022-09-09T06:23:25;100542.66;;;15.43;100.00
66273;BME280;58450;52.150;4.466;2022-09-09T06:26:00;100533.00;;;15.47;100.00
66273;BME280;58450;52.150;4.466;2022-09-09T06:28:31;100539.69;;;15.63;100.00
66273;BME280;58450;52.150;4.466;2022-09-09T06:30:59;100543.38;;;15.69;100.00
66273;BME280;58450;52.150;4.466;2022-09-09T06:33:31;100536.44;;;15.73;100.00
66273;BME280;58450;52.150;4.466;2022-09-09T06:36:01;100534.31;;;15.75;100.00
66273;BME280;58450;52.150;4.466;2022-09-09T06:38:31;100537.25;;;15.92;100.00
66273;BME280;58450;52.150;4.466;2022-09-09T06:40:59;100545.16;;;15.94;100.00
66273;BME280;58450;52.150;4.466;2022-09-09T06:43:28;100544.00;;;16.02;100.00
66273;BME280;58450;52.150;4.466;2022-09-09T06:45:56;100530.13;;;16.10;100.00
66273;BME280;58450;52.150;4.466;2022-09-09T06:48:25;100534.88;;;16.27;100.00
66273;BME280;58450;52.150;4.466;2022-09-09T06:51:02;100537.59;;;16.38;100.00
66273;BME280;58450;52.150;4.466;2022-09-09T06:53:31;100540.91;;;16.29;100.00
66273;BME280;58450;52.150;4.466;2022-09-09T06:56:00;100531.91;;;16.28;100.00
66273;BME280;58450;52.150;4.466;2022-09-09T06:58:28;100537.59;;;16.38;100.00
66273;BME280;58450;52.150;4.466;2022-09-09T07:01:02;100540.31;;;16.27;100.00
66273;BME280;58450;52.150;4.466;2022-09-09T07:03:30;100537.59;;;16.27;100.00
66273;BME280;58450;52.150;4.466;2022-09-09T07:05:58;100535.47;;;16.29;100.00
66273;BME280;58450;52.150;4.466;2022-09-09T07:08:27;100534.75;;;16.33;100.00
66273;BME280;58450;52.150;4.466;2022-09-09T07:11:01;100538.31;;;16.34;100.00
66273;BME280;58450;52.150;4.466;2022-09-09T07:13:31;100526.75;;;16.38;100.00
66273;BME280;58450;52.150;4.466;2022-09-09T07:16:03;100526.41;;;16.47;100.00
66273;BME280;58450;52.150;4.466;2022-09-09T07:18:31;100526.41;;;16.59;100.00
66273;BME280;58450;52.150;4.466;2022-09-09T07:21:01;100523.34;;;16.55;100.00
66273;BME280;58450;52.150;4.466;2022-09-09T07:23:32;100533.97;;;16.45;100.00
66273;BME280;58450;52.150;4.466;2022-09-09T07:26:02;100530.91;;;16.53;100.00
66273;BME280;58450;52.150;4.466;2022-09-09T07:28:33;100535.41;;;16.59;100.00
66273;BME280;58450;52.150;4.466;2022-09-09T07:31:02;100528.06;;;16.60;100.00
66273;BME280;58450;52.150;4.466;2022-09-09T07:33:31;100521.34;;;16.62;100.00
66273;BME280;58450;52.150;4.466;2022-09-09T07:36:06;100521.81;;;16.59;100.00
66273;BME280;58450;52.150;4.466;2022-09-09T07:38:39;100527.13;;;16.54;100.00
66273;BME280;58450;52.150;4.466;2022-09-09T07:41:08;100532.44;;;16.49;100.00
66273;BME280;58450;52.150;4.466;2022-09-09T07:43:39;100535.38;;;16.47;100.00
66273;BME280;58450;52.150;4.466;2022-09-09T07:46:07;100533.84;;;16.39;100.00
66273;BME280;58450;52.150;4.466;2022-09-09T07:48:36;100543.16;;;16.32;100.00
66273;BME280;58450;52.150;4.466;2022-09-09T07:51:06;100537.47;;;16.33;100.00
66273;BME280;58450;52.150;4.466;2022-09-09T07:53:35;100544.44;;;16.29;100.00
66273;BME280;58450;52.150;4.466;2022-09-09T07:56:09;100534.16;;;16.19;100.00
66273;BME280;58450;52.150;4.466;2022-09-09T07:58:39;100540.06;;;16.28;100.00
66273;BME280;58450;52.150;4.466;2022-09-09T08:01:09;100533.56;;;16.29;100.00
66273;BME280;58450;52.150;4.466;2022-09-09T08:03:38;100538.53;;;16.32;100.00
66273;BME280;58450;52.150;4.466;2022-09-09T08:06:07;100528.03;;;16.36;100.00
66273;BME280;58450;52.150;4.466;2022-09-09T08:08:36;100531.34;;;16.38;100.00
66273;BME280;58450;52.150;4.466;2022-09-09T08:11:08;100534.28;;;16.36;100.00
66273;BME280;58450;52.150;4.466;2022-09-09T08:13:38;100543.88;;;16.51;100.00
66273;BME280;58450;52.150;4.466;2022-09-09T08:16:08;100534.44;;;16.53;100.00
66273;BME280;58450;52.150;4.466;2022-09-09T08:18:37;100538.47;;;16.63;100.00
66273;BME280;58450;52.150;4.466;2022-09-09T08:21:07;100533.16;;;16.68;100.00
66273;BME280;58450;52.150;4.466;2022-09-09T08:23:38;100533.97;;;16.80;100.00
66273;BME280;58450;52.150;4.466;2022-09-09T08:26:10;100534.69;;;16.88;100.00
66273;BME280;58450;52.150;4.466;2022-09-09T08:28:41;100529.72;;;16.84;100.00
66273;BME280;58450;52.150;4.466;2022-09-09T08:31:11;100525.34;;;16.83;100.00
66273;BME280;58450;52.150;4.466;2022-09-09T08:33:41;100523.25;;;16.97;100.00
66273;BME280;58450;52.150;4.466;2022-09-09T08:36:14;100527.63;;;16.98;100.00
66273;BME280;58450;52.150;4.466;2022-09-09T08:38:46;100529.72;;;16.84;100.00
66273;BME280;58450;52.150;4.466;2022-09-09T08:41:29;100529.13;;;16.94;100.00
66273;BME280;58450;52.150;4.466;2022-09-09T08:44:16;100534.91;;;16.86;100.00
66273;BME280;58450;52.150;4.466;2022-09-09T08:46:56;100533.84;;;16.87;100.00
66273;BME280;58450;52.150;4.466;2022-09-09T08:49:48;100531.84;;;16.82;100.00
66273;BME280;58450;52.150;4.466;2022-09-09T08:52:29;100536.22;;;16.83;100.00
66273;BME280;58450;52.150;4.466;2022-09-09T08:55:13;100544.72;;;16.87;100.00
66273;BME280;58450;52.150;4.466;2022-09-09T08:57:51;100539.78;;;16.96;100.00
66273;BME280;58450;52.150;4.466;2022-09-09T09:00:21;100550.19;;;16.99;100.00
66273;BME280;58450;52.150;4.466;2022-09-09T09:02:58;100538.13;;;16.95;100.00
66273;BME280;58450;52.150;4.466;2022-09-09T09:05:37;100544.75;;;16.99;100.00
66273;BME280;58450;52.150;4.466;2022-09-09T09:08:17;100549.22;;;16.93;100.00
66273;BME280;58450;52.150;4.466;2022-09-09T09:10:56;100546.97;;;16.90;100.00
66273;BME280;58450;52.150;4.466;2022-09-09T09:13:33;100544.72;;;16.87;100.00
66273;BME280;58450;52.150;4.466;2022-09-09T09:16:13;100549.09;;;16.88;100.00
66273;BME280;58450;52.150;4.466;2022-09-09T09:18:47;100549.22;;;16.93;100.00
66273;BME280;58450;52.150;4.466;2022-09-09T09:21:16;100549.00;;;16.95;100.00
66273;BME280;58450;52.150;4.466;2022-09-09T09:23:55;100553.72;;;16.76;100.00
66273;BME280;58450;52.150;4.466;2022-09-09T09:26:30;100560.56;;;16.78;100.00
66273;BME280;58450;52.150;4.466;2022-09-09T09:29:09;100556.91;;;16.73;100.00
66273;BME280;58450;52.150;4.466;2022-09-09T09:31:43;100550.28;;;16.68;100.00
66273;BME280;58450;52.150;4.466;2022-09-09T09:34:15;100547.91;;;16.60;100.00
66273;BME280;58450;52.150;4.466;2022-09-09T09:36:45;100551.09;;;16.57;100.00
66273;BME280;58450;52.150;4.466;2022-09-09T09:39:24;100551.94;;;16.69;100.00
66273;BME280;58450;52.150;4.466;2022-09-09T09:41:53;100545.56;;;16.88;100.00
66273;BME280;58450;52.150;4.466;2022-09-09T09:44:26;100540.25;;;17.17;100.00
66273;BME280;58450;52.150;4.466;2022-09-09T09:47:06;100538.03;;;17.83;100.00
66273;BME280;58450;52.150;4.466;2022-09-09T09:49:34;100533.50;;;18.01;100.00
66273;BME280;58450;52.150;4.466;2022-09-09T09:52:03;100535.41;;;18.00;100.00
66273;BME280;58450;52.150;4.466;2022-09-09T09:54:34;100541.44;;;17.62;100.00
66273;BME280;58450;52.150;4.466;2022-09-09T09:57:09;100536.44;;;17.70;100.00
66273;BME280;58450;52.150;4.466;2022-09-09T09:59:40;100544.25;;;17.67;100.00
66273;BME280;58450;52.150;4.466;2022-09-09T10:02:17;100545.34;;;17.66;100.00
66273;BME280;58450;52.150;4.466;2022-09-09T10:04:47;100546.22;;;17.54;100.00
66273;BME280;58450;52.150;4.466;2022-09-09T10:07:19;100537.00;;;17.43;100.00
66273;BME280;58450;52.150;4.466;2022-09-09T10:09:52;100550.84;;;17.83;100.00
66273;BME280;58450;52.150;4.466;2022-09-09T10:12:30;100542.25;;;18.03;100.00
66273;BME280;58450;52.150;4.466;2022-09-09T10:15:24;100533.78;;;18.16;100.00
66273;BME280;58450;52.150;4.466;2022-09-09T10:18:12;100538.72;;;18.02;100.00
66273;BME280;58450;52.150;4.466;2022-09-09T10:21:00;100536.09;;;17.67;100.00
66273;BME280;58450;52.150;4.466;2022-09-09T10:23:47;100548.56;;;17.51;100.00
66273;BME280;58450;52.150;4.466;2022-09-09T10:26:35;100540.34;;;17.34;100.00
66273;BME280;58450;52.150;4.466;2022-09-09T10:29:37;100547.34;;;17.18;100.00
66273;BME280;58450;52.150;4.466;2022-09-09T10:32:33;100550.06;;;16.94;100.00
66273;BME280;58450;52.150;4.466;2022-09-09T10:35:11;100557.25;;;16.76;100.00
66273;BME280;58450;52.150;4.466;2022-09-09T10:37:52;100556.91;;;16.84;100.00
66273;BME280;58450;52.150;4.466;2022-09-09T10:40:33;100561.03;;;16.75;100.00
66273;BME280;58450;52.150;4.466;2022-09-09T10:43:16;100551.22;;;16.62;100.00
66273;BME280;58450;52.150;4.466;2022-09-09T10:46:04;100544.00;;;16.68;100.00
66273;BME280;58450;52.150;4.466;2022-09-09T10:48:48;100545.19;;;16.84;100.00
66273;BME280;58450;52.150;4.466;2022-09-09T10:51:33;100540.38;;;16.98;100.00
66273;BME280;58450;52.150;4.466;2022-09-09T10:54:21;100543.56;;;17.07;100.00
66273;BME280;58450;52.150;4.466;2022-09-09T10:56:59;100532.44;;;17.20;100.00
66273;BME280;58450;52.150;4.466;2022-09-09T10:59:38;100542.75;;;17.59;100.00
66273;BME280;58450;52.150;4.466;2022-09-09T11:02:15;100537.41;;;18.22;100.00
66273;BME280;58450;52.150;4.466;2022-09-09T11:04:53;100526.94;;;18.48;100.00
66273;BME280;58450;52.150;4.466;2022-09-09T11:07:29;100534.19;;;18.76;100.00
66273;BME280;58450;52.150;4.466;2022-09-09T11:10:06;100529.06;;;18.63;100.00
66273;BME280;58450;52.150;4.466;2022-09-09T11:12:45;100532.72;;;18.52;100.00
66273;BME280;58450;52.150;4.466;2022-09-09T11:15:22;100529.25;;;18.56;100.00
66273;BME280;58450;52.150;4.466;2022-09-09T11:17:58;100523.63;;;18.80;100.00
66273;BME280;58450;52.150;4.466;2022-09-09T11:20:33;100528.50;;;18.78;100.00
66273;BME280;58450;52.150;4.466;2022-09-09T11:23:04;100523.41;;;18.87;100.00
66273;BME280;58450;52.150;4.466;2022-09-09T11:25:40;100529.56;;;18.77;100.00
66273;BME280;58450;52.150;4.466;2022-09-09T11:28:39;100531.38;;;18.71;100.00
66273;BME280;58450;52.150;4.466;2022-09-09T11:31:38;100528.00;;;18.64;100.00
66273;BME280;58450;52.150;4.466;2022-09-09T11:34:26;100536.84;;;18.54;100.00
66273;BME280;58450;52.150;4.466;2022-09-09T11:37:17;100543.19;;;18.26;100.00
66273;BME280;58450;52.150;4.466;2022-09-09T11:40:14;100527.66;;;18.26;100.00
66273;BME280;58450;52.150;4.466;2022-09-09T11:43:01;100529.81;;;18.24;100.00
66273;BME280;58450;52.150;4.466;2022-09-09T11:45:33;100528.06;;;18.18;100.00
66273;BME280;58450;52.150;4.466;2022-09-09T11:48:04;100532.13;;;18.15;100.00
66273;BME280;58450;52.150;4.466;2022-09-09T11:50:35;100532.69;;;18.17;100.00
66273;BME280;58450;52.150;4.466;2022-09-09T11:53:23;100538.59;;;17.97;100.00
66273;BME280;58450;52.150;4.466;2022-09-09T11:56:13;100550.84;;;17.42;100.00
66273;BME280;58450;52.150;4.466;2022-09-09T11:58:55;100544.22;;;17.38;100.00
66273;BME280;58450;52.150;4.466;2022-09-09T12:01:28;100543.88;;;17.34;100.00
66273;BME280;58450;52.150;4.466;2022-09-09T12:04:30;100544.94;;;17.45;100.00
66273;BME280;58450;52.150;4.466;2022-09-09T12:07:02;100549.63;;;17.50;100.00
66273;BME280;58450;52.150;4.466;2022-09-09T12:09:43;100546.31;;;17.60;100.00
66273;BME280;58450;52.150;4.466;2022-09-09T12:12:33;100553.44;;;17.78;100.00
66273;BME280;58450;52.150;4.466;2022-09-09T12:15:21;100541.94;;;18.16;100.00
66273;BME280;58450;52.150;4.466;2022-09-09T12:17:56;100538.25;;;18.40;100.00
66273;BME280;58450;52.150;4.466;2022-09-09T12:20:32;100540.72;;;18.41;100.00
66273;BME280;58450;52.150;4.466;2022-09-09T12:23:09;100537.41;;;18.22;100.00
66273;BME280;58450;52.150;4.466;2022-09-09T12:26:05;100544.69;;;18.51;100.00
66273;BME280;58450;52.150;4.466;2022-09-09T12:28:59;100552.78;;;18.63;100.00
66273;BME280;58450;52.150;4.466;2022-09-09T12:31:41;100548.81;;;18.53;100.00
66273;BME280;58450;52.150;4.466;2022-09-09T12:34:16;100542.97;;;18.44;100.00
66273;BME280;58450;52.150;4.466;2022-09-09T12:36:55;100549.00;;;18.46;100.00
66273;BME280;58450;52.150;4.466;2022-09-09T12:39:32;100549.44;;;18.26;100.00
66273;BME280;58450;52.150;4.466;2022-09-09T12:42:14;100549.03;;;17.88;100.00
66273;BME280;58450;52.150;4.466;2022-09-09T12:44:51;100564.94;;;17.80;100.00
66273;BME280;58450;52.150;4.466;2022-09-09T12:47:22;100560.16;;;17.87;100.00
66273;BME280;58450;52.150;4.466;2022-09-09T12:49:54;100556.72;;;17.63;100.00
66273;BME280;58450;52.150;4.466;2022-09-09T12:52:26;100565.34;;;17.60;100.00
66273;BME280;58450;52.150;4.466;2022-09-09T12:54:59;100566.22;;;17.77;100.00
66273;BME280;58450;52.150;4.466;2022-09-09T12:57:35;100572.25;;;17.79;100.00
66273;BME280;58450;52.150;4.466;2022-09-09T13:00:07;100562.63;;;17.60;100.00
66273;BME280;58450;52.150;4.466;2022-09-09T13:02:49;100570.91;;;17.65;100.00
66273;BME280;58450;52.150;4.466;2022-09-09T13:05:21;100572.41;;;17.72;100.00
66273;BME280;58450;52.150;4.466;2022-09-09T13:07:50;100570.53;;;17.61;100.00
66273;BME280;58450;52.150;4.466;2022-09-09T13:10:24;100564.88;;;17.51;100.00
66273;BME280;58450;52.150;4.466;2022-09-09T13:12:57;100568.78;;;17.55;100.00
66273;BME280;58450;52.150;4.466;2022-09-09T13:15:28;100556.19;;;17.78;100.00
66273;BME280;58450;52.150;4.466;2022-09-09T13:17:58;100561.91;;;17.93;100.00